Time;durP1;ratioP1;P1;durP2;ratioP2;P2;SDS_P1;SDS_P2;PMS_P1;PMS_P2;Temp;Humidity;BMP_temperature;BMP_pressure;BME280_temperature;BME280_humidity;BME280_pressure;Samples;Min_cycle;Max_cycle;Signal;HPM_P1;HPM_P2
2021/11/21 00:00:11;;;;;;;17.10;11.85;;;4.70;99.90;;;;;;5132465;27;20875;-83
2021/11/21 00:02:39;;;;;;;19.63;11.25;;;;;;;;;;5132119;27;20270;-83
2021/11/21 00:05:07;;;;;;;14.32;11.13;;;4.90;99.90;;;;;;5128751;27;20285;-83
2021/11/21 00:07:34;;;;;;;17.13;11.52;;;4.70;99.90;;;;;;5130959;27;20214;-83
2021/11/21 00:10:01;;;;;;;16.50;11.80;;;;;;;;;;5133236;27;20198;-83
2021/11/21 00:12:29;;;;;;;15.27;11.02;;;;;;;;;;5132980;27;20283;-84
2021/11/21 00:14:57;;;;;;;16.27;10.95;;;;;;;;;;5131657;27;20194;-83
2021/11/21 00:17:25;;;;;;;15.50;11.27;;;;;;;;;;5132908;27;20674;-84
2021/11/21 00:19:54;;;;;;;17.25;10.60;;;;;;;;;;5131673;27;20193;-83
2021/11/21 00:22:21;;;;;;;15.27;10.80;;;;;;;;;;5132451;27;20262;-84
2021/11/21 00:24:48;;;;;;;16.13;10.93;;;;;;;;;;5132840;27;20225;-84
2021/11/21 00:27:15;;;;;;;13.45;9.95;;;;;;;;;;5132872;27;20638;-84
2021/11/21 00:29:42;;;;;;;17.25;11.57;;;;;;;;;;5132210;27;20273;-84
2021/11/21 00:32:11;;;;;;;17.42;10.65;;;4.30;99.90;;;;;;5132762;27;20186;-83
2021/11/21 00:34:38;;;;;;;12.90;9.43;;;;;;;;;;5132690;27;20270;-84
2021/11/21 00:37:05;;;;;;;13.10;9.95;;;;;;;;;;5133005;27;20621;-83
2021/11/21 00:39:32;;;;;;;16.73;10.23;;;;;;;;;;5132271;27;20250;-84
2021/11/21 00:41:59;;;;;;;12.23;8.75;;;;;;;;;;5124888;27;20258;-83
2021/11/21 00:44:26;;;;;;;14.18;10.45;;;;;;;;;;5133323;27;20238;-83
2021/11/21 00:46:54;;;;;;;12.27;9.98;;;;;;;;;;5131986;27;20221;-83
2021/11/21 00:49:22;;;;;;;11.43;8.50;;;;;;;;;;5132294;27;20220;-83
2021/11/21 00:51:50;;;;;;;12.70;8.07;;;;;;;;;;5131948;27;20217;-84
2021/11/21 00:54:27;;;;;;;12.30;8.48;;;;;;;;;;5132562;27;20311;-84
2021/11/21 00:56:54;;;;;;;13.23;9.20;;;4.40;99.90;;;;;;5129963;27;20207;-83
2021/11/21 00:59:23;;;;;;;11.68;8.45;;;4.50;99.90;;;;;;5132238;27;20222;-84
2021/11/21 01:01:52;;;;;;;11.90;9.00;;;4.50;99.90;;;;;;5131841;27;20192;-84
2021/11/21 01:04:19;;;;;;;11.20;8.10;;;;;;;;;;5132539;27;20229;-84
2021/11/21 01:06:47;;;;;;;10.10;7.93;;;4.50;99.90;;;;;;5131787;27;20274;-83
2021/11/21 01:09:15;;;;;;;9.95;7.65;;;;;;;;;;5131281;27;20246;-83
2021/11/21 01:11:43;;;;;;;11.40;8.80;;;4.50;99.90;;;;;;5131325;27;20615;-83
2021/11/21 01:14:10;;;;;;;9.68;7.95;;;;;;;;;;5126348;27;20267;-83
2021/11/21 01:16:37;;;;;;;10.48;8.23;;;4.50;99.90;;;;;;5130642;27;20372;-84
2021/11/21 01:19:05;;;;;;;12.88;8.88;;;;;;;;;;5131173;27;20220;-84
2021/11/21 01:21:32;;;;;;;12.35;9.82;;;;;;;;;;5130103;27;20284;-83
2021/11/21 01:24:00;;;;;;;11.75;8.23;;;4.30;99.90;;;;;;5132184;27;20232;-83
2021/11/21 01:26:27;;;;;;;13.27;8.20;;;;;;;;;;5131695;27;20257;-84
2021/11/21 01:28:55;;;;;;;11.40;7.75;;;;;;;;;;5131144;27;20280;-84
2021/11/21 01:31:22;;;;;;;13.57;8.00;;;;;;;;;;5131056;27;20276;-84
2021/11/21 01:33:49;;;;;;;13.38;9.10;;;;;;;;;;5130676;27;20647;-84
2021/11/21 01:36:16;;;;;;;11.48;7.80;;;;;;;;;;5130685;27;20239;-82
2021/11/21 01:38:43;;;;;;;11.63;7.65;;;;;;;;;;5131350;27;20243;-83
2021/11/21 01:41:12;;;;;;;10.52;7.75;;;4.20;99.90;;;;;;5130989;27;20197;-84
2021/11/21 01:43:39;;;;;;;9.55;7.75;;;;;;;;;;5131472;27;20225;-83
2021/11/21 01:46:06;;;;;;;9.45;6.72;;;;;;;;;;5130956;27;20231;-84
2021/11/21 01:48:34;;;;;;;9.35;7.30;;;;;;;;;;5131891;27;20634;-84
2021/11/21 01:51:05;;;;;;;8.07;7.05;;;3.90;99.90;;;;;;5129778;27;20233;-83
2021/11/21 01:53:32;;;;;;;9.73;7.53;;;;;;;;;;5131231;27;20207;-84
2021/11/21 01:56:00;;;;;;;8.60;6.70;;;3.70;99.90;;;;;;5130382;27;20227;-84
2021/11/21 01:58:28;;;;;;;7.10;6.07;;;;;;;;;;5131370;27;20658;-84
2021/11/21 02:00:56;;;;;;;6.60;6.00;;;;;;;;;;5129810;27;20228;-83
2021/11/21 02:03:23;;;;;;;8.82;6.68;;;;;;;;;;5121378;27;20191;-84
2021/11/21 02:05:50;;;;;;;9.13;6.43;;;;;;;;;;5131309;27;20216;-83
2021/11/21 02:08:18;;;;;;;9.50;6.28;;;;;;;;;;5124355;27;20256;-84
2021/11/21 02:10:45;;;;;;;15.68;7.43;;;;;;;;;;5130370;27;20278;-84
2021/11/21 02:13:12;;;;;;;8.02;6.18;;;;;;;;;;5111922;27;20196;-82
2021/11/21 02:15:44;;;;;;;10.38;6.80;;;3.50;99.90;;;;;;5129607;27;20196;-83
2021/11/21 02:18:13;;;;;;;10.40;7.13;;;;;;;;;;5131597;27;20203;-83
2021/11/21 02:20:52;;;;;;;7.85;6.60;;;3.50;99.90;;;;;;5129958;28;20728;-84
2021/11/21 02:23:19;;;;;;;13.05;6.93;;;;;;;;;;5130474;28;20233;-84
2021/11/21 02:25:46;;;;;;;7.78;6.40;;;;;;;;;;5130545;28;20246;-84
2021/11/21 02:28:13;;;;;;;9.60;6.32;;;;;;;;;;5130390;28;20224;-83
2021/11/21 02:30:41;;;;;;;9.40;7.20;;;;;;;;;;5130727;28;20232;-84
2021/11/21 02:33:11;;;;;;;7.25;6.05;;;3.80;99.90;;;;;;5117897;28;20233;-84
2021/11/21 02:35:42;;;;;;;6.95;6.25;;;3.50;99.90;;;;;;5130954;28;20850;-83
2021/11/21 02:38:13;;;;;;;8.68;6.15;;;3.40;99.90;;;;;;5110970;28;20198;-83
2021/11/21 02:40:40;;;;;;;8.20;7.30;;;;;;;;;;5120470;27;20751;-83
2021/11/21 02:43:08;;;;;;;7.25;6.07;;;3.20;99.90;;;;;;5134318;27;20258;-84
2021/11/21 02:45:35;;;;;;;7.75;5.90;;;;;;;;;;5134820;27;20231;-83
2021/11/21 02:48:02;;;;;;;6.00;5.40;;;;;;;;;;5134106;27;20241;-83
2021/11/21 02:50:31;;;;;;;7.57;6.53;;;;;;;;;;5134574;27;20231;-83
2021/11/21 02:52:59;;;;;;;7.78;6.05;;;;;;;;;;5134428;27;20629;-83
2021/11/21 02:55:29;;;;;;;8.35;6.70;;;3.80;99.90;;;;;;5134271;27;20208;-84
2021/11/21 02:57:57;;;;;;;9.05;7.05;;;3.50;99.90;;;;;;5134721;27;20194;-84
2021/11/21 03:00:24;;;;;;;7.13;5.50;;;;;;;;;;5134159;27;21036;-83
2021/11/21 03:02:52;;;;;;;12.05;7.00;;;;;;;;;;5134520;27;20285;-83
2021/11/21 03:05:21;;;;;;;9.65;5.72;;;3.40;99.90;;;;;;5135034;27;20210;-82
2021/11/21 03:07:48;;;;;;;7.63;6.40;;;;;;;;;;5132569;27;20285;-82
2021/11/21 03:10:18;;;;;;;14.40;6.82;;;3.30;99.90;;;;;;5128096;27;20259;-83
2021/11/21 03:12:47;;;;;;;8.55;5.70;;;;;;;;;;5135393;27;20196;-84
2021/11/21 03:15:14;;;;;;;6.60;5.80;;;;;;;;;;5133507;27;20699;-84
2021/11/21 03:17:43;;;;;;;10.70;6.65;;;;;;;;;;5134025;27;20220;-83
2021/11/21 03:20:12;;;;;;;8.02;5.85;;;2.80;99.90;;;;;;5134308;27;20203;-83
2021/11/21 03:22:39;;;;;;;13.05;6.65;;;;;;;;;;5133625;27;20204;-83
2021/11/21 03:25:06;;;;;;;6.78;5.25;;;;;;;;;;5134589;27;20210;-84
2021/11/21 03:27:34;;;;;;;6.75;5.65;;;;;;;;;;5134000;27;20220;-83
2021/11/21 03:30:02;;;;;;;8.25;6.20;;;;;;;;;;5133818;27;20239;-84
2021/11/21 03:32:29;;;;;;;7.75;6.60;;;;;;;;;;5133665;27;20256;-84
2021/11/21 03:34:57;;;;;;;8.27;6.57;;;;;;;;;;5133630;27;20250;-84
2021/11/21 03:37:24;;;;;;;8.13;5.80;;;;;;;;;;5134239;27;20780;-83
2021/11/21 03:39:51;;;;;;;7.80;6.85;;;;;;;;;;5133321;27;20206;-84
2021/11/21 03:42:18;;;;;;;9.77;6.47;;;;;;;;;;5127029;27;20310;-83
2021/11/21 03:44:46;;;;;;;10.60;6.55;;;;;;;;;;5133854;27;20235;-82
2021/11/21 03:47:14;;;;;;;7.03;5.25;;;;;;;;;;5133785;27;20286;-83
2021/11/21 03:49:41;;;;;;;9.30;5.80;;;;;;;;;;5133536;27;20220;-84
2021/11/21 03:52:08;;;;;;;6.45;5.85;;;;;;;;;;5133339;27;20250;-84
2021/11/21 03:54:36;;;;;;;8.50;5.97;;;;;;;;;;5133439;27;20314;-84
2021/11/21 03:57:03;;;;;;;8.80;6.85;;;;;;;;;;5133995;27;20223;-84
2021/11/21 03:59:30;;;;;;;9.52;6.53;;;;;;;;;;5116375;27;20291;-84
2021/11/21 04:01:59;;;;;;;7.03;5.55;;;;;;;;;;5132517;27;20242;-83
2021/11/21 04:04:28;;;;;;;11.40;6.82;;;;;;;;;;5133099;27;20577;-84
2021/11/21 04:06:55;;;;;;;8.10;6.53;;;3.10;99.90;;;;;;5133826;27;20203;-84
2021/11/21 04:09:23;;;;;;;8.32;6.15;;;;;;;;;;5132718;27;20196;-83
2021/11/21 04:11:50;;;;;;;6.43;5.65;;;2.90;99.90;;;;;;5112716;28;20247;-84
2021/11/21 04:14:18;;;;;;;9.80;6.60;;;;;;;;;;5130148;27;20221;-83
2021/11/21 04:16:45;;;;;;;6.70;6.00;;;3.80;99.90;;;;;;5132166;27;20194;-84
2021/11/21 04:19:13;;;;;;;8.45;6.93;;;;;;;;;;5133035;27;20676;-83
2021/11/21 04:21:42;;;;;;;8.50;5.47;;;;;;;;;;5133264;27;20278;-84
2021/11/21 04:24:13;;;;;;;6.50;5.40;;;;;;;;;;5132876;27;20638;-84
2021/11/21 04:26:41;;;;;;;10.32;5.72;;;3.40;99.90;;;;;;5132623;27;20292;-84
2021/11/21 04:29:08;;;;;;;7.50;6.07;;;;;;;;;;5132030;27;20192;-83
2021/11/21 04:31:35;;;;;;;8.55;5.95;;;;;;;;;;5132586;27;20281;-84
2021/11/21 04:34:02;;;;;;;9.60;6.43;;;;;;;;;;5132545;27;20227;-83
2021/11/21 04:36:29;;;;;;;10.13;6.53;;;;;;;;;;5132709;27;20279;-84
2021/11/21 04:38:58;;;;;;;10.88;7.53;;;;;;;;;;5132962;27;20279;-84
2021/11/21 04:41:25;;;;;;;7.13;6.43;;;;;;;;;;5132062;27;20242;-84
2021/11/21 04:43:52;;;;;;;7.35;6.05;;;;;;;;;;5130553;27;20288;-83
2021/11/21 04:46:19;;;;;;;12.82;5.57;;;;;;;;;;5127848;27;20229;-83
2021/11/21 04:48:47;;;;;;;8.50;5.72;;;;;;;;;;5131942;27;20208;-84
2021/11/21 04:51:14;;;;;;;8.10;5.80;;;;;;;;;;5131840;27;20217;-84
2021/11/21 04:53:41;;;;;;;10.32;7.05;;;;;;;;;;5132079;27;20232;-84
2021/11/21 04:56:10;;;;;;;7.78;5.47;;;;;;;;;;5132004;27;20228;-83
2021/11/21 04:58:37;;;;;;;8.32;5.82;;;;;;;;;;5132575;27;20840;-84
2021/11/21 05:01:04;;;;;;;7.20;6.50;;;;;;;;;;5131167;27;20699;-83
2021/11/21 05:03:31;;;;;;;6.38;5.47;;;;;;;;;;5131779;27;20273;-84
2021/11/21 05:05:59;;;;;;;10.45;4.90;;;;;;;;;;5131746;27;20238;-84
2021/11/21 05:08:26;;;;;;;9.57;5.63;;;;;;;;;;5132342;27;20197;-84
2021/11/21 05:10:53;;;;;;;6.28;5.03;;;;;;;;;;5131307;27;20203;-84
2021/11/21 05:13:21;;;;;;;5.88;4.65;;;;;;;;;;5132245;27;20220;-85
2021/11/21 05:15:49;;;;;;;7.28;5.35;;;;;;;;;;5131708;27;20405;-84
2021/11/21 05:18:16;;;;;;;7.72;5.40;;;;;;;;;;5132249;27;20212;-84
2021/11/21 05:20:43;;;;;;;5.70;4.22;;;;;;;;;;5131527;27;20290;-84
2021/11/21 05:23:10;;;;;;;6.53;5.07;;;;;;;;;;5131748;27;20206;-83
2021/11/21 05:25:37;;;;;;;12.68;5.03;;;;;;;;;;5131879;27;20211;-84
2021/11/21 05:28:05;;;;;;;7.88;4.72;;;0.80;99.90;;;;;;5132017;27;20805;-82
2021/11/21 05:30:33;;;;;;;6.03;4.88;;;;;;;;;;5131107;27;20222;-83
2021/11/21 05:33:03;;;;;;;6.28;4.72;;;;;;;;;;5131794;27;20274;-83
2021/11/21 05:35:30;;;;;;;8.35;4.68;;;;;;;;;;5131156;27;20219;-84
2021/11/21 05:37:57;;;;;;;6.65;4.40;;;;;;;;;;5131654;27;20259;-84
2021/11/21 05:40:24;;;;;;;6.57;4.65;;;;;;;;;;5123869;27;20712;-83
2021/11/21 05:42:52;;;;;;;15.05;4.10;;;;;;;;;;5131890;27;20239;-83
2021/11/21 05:45:19;;;;;;;5.80;4.93;;;;;;;;;;5131471;27;20286;-84
2021/11/21 05:47:48;;;;;;;19.00;5.85;;;;;;;;;;5131793;27;20241;-84
2021/11/21 05:50:16;;;;;;;8.45;5.13;;;;;;;;;;5130080;27;20648;-84
2021/11/21 05:52:44;;;;;;;5.30;3.63;;;2.70;99.90;;;;;;5130962;27;20226;-83
2021/11/21 05:55:11;;;;;;;9.50;4.63;;;2.60;99.90;;;;;;5131017;27;20275;-83
2021/11/21 05:57:39;;;;;;;10.70;4.57;;;;;;;;;;5130904;27;20275;-84
2021/11/21 06:00:08;;;;;;;26.00;5.25;;;2.60;99.90;;;;;;5131140;27;20285;-82
2021/11/21 06:02:35;;;;;;;11.48;4.45;;;;;;;;;;5130680;27;20288;-84
2021/11/21 06:05:05;;;;;;;9.20;4.93;;;;;;;;;;5130707;27;20247;-83
2021/11/21 06:07:32;;;;;;;12.55;5.03;;;;;;;;;;5130806;27;20273;-83
2021/11/21 06:10:01;;;;;;;8.73;5.47;;;;;;;;;;5130985;27;20232;-83
2021/11/21 06:12:29;;;;;;;5.90;4.45;;;;;;;;;;5131266;27;20208;-84
2021/11/21 06:14:56;;;;;;;7.20;3.85;;;;;;;;;;5130244;27;20242;-84
2021/11/21 06:17:23;;;;;;;7.85;5.28;;;;;;;;;;5129899;27;20310;-82
2021/11/21 06:19:50;;;;;;;20.50;4.93;;;;;;;;;;5129067;27;20217;-83
2021/11/21 06:22:19;;;;;;;5.57;4.28;;;2.60;99.90;;;;;;5124894;28;20214;-83
2021/11/21 06:24:46;;;;;;;10.75;4.78;;;;;;;;;;5130203;28;20743;-84
2021/11/21 06:27:14;;;;;;;9.73;4.43;;;2.60;99.90;;;;;;5130238;28;20283;-84
2021/11/21 06:29:41;;;;;;;8.15;4.53;;;;;;;;;;5130757;28;20206;-83
2021/11/21 06:32:09;;;;;;;8.52;4.45;;;2.60;99.90;;;;;;5123568;28;20290;-83
2021/11/21 06:34:36;;;;;;;6.30;3.72;;;;;;;;;;5129162;28;20238;-83
2021/11/21 06:37:06;;;;;;;8.98;4.18;;;2.60;99.90;;;;;;5130072;28;20659;-84
2021/11/21 06:39:35;;;;;;;8.30;4.97;;;;;;;;;;5130691;28;20233;-83
2021/11/21 06:42:02;;;;;;;9.65;4.47;;;;;;;;;;5129258;28;20202;-83
2021/11/21 06:44:30;;;;;;;10.05;7.00;;;2.40;99.90;;;;;;5130027;28;20222;-83
2021/11/21 06:46:57;;;;;;;8.35;4.93;;;;;;;;;;5126532;28;20377;-84
2021/11/21 06:49:24;;;;;;;8.80;4.53;;;;;;;;;;5132451;28;20736;-83
2021/11/21 06:51:52;;;;;;;9.88;4.72;;;;;;;;;;5129780;28;20198;-83
2021/11/21 06:54:19;;;;;;;8.23;5.00;;;;;;;;;;5129419;28;20207;-83
2021/11/21 06:56:47;;;;;;;10.10;4.90;;;2.60;99.90;;;;;;5130052;28;20681;-83
2021/11/21 06:59:14;;;;;;;20.00;4.85;;;;;;;;;;5130060;28;20225;-83
2021/11/21 07:01:42;;;;;;;19.23;3.97;;;;;;;;;;5129322;28;20218;-84
2021/11/21 07:04:09;;;;;;;6.20;5.00;;;;;;;;;;5130687;28;20278;-84
2021/11/21 07:06:38;;;;;;;6.40;4.75;;;2.80;99.90;;;;;;5129005;28;20227;-83
2021/11/21 07:09:07;;;;;;;10.15;4.95;;;2.80;99.90;;;;;;5130270;28;20579;-84
2021/11/21 07:11:34;;;;;;;6.25;4.40;;;;;;;;;;5129460;28;20196;-84
2021/11/21 07:14:03;;;;;;;6.25;3.60;;;;;;;;;;5145359;27;20226;-84
2021/11/21 07:16:30;;;;;;;8.90;4.50;;;;;;;;;;5141074;27;20657;-84
2021/11/21 07:18:58;;;;;;;7.22;4.45;;;3.10;99.90;;;;;;5130607;28;20232;-83
2021/11/21 07:21:25;;;;;;;8.38;4.22;;;;;;;;;;5130213;28;20192;-84
2021/11/21 07:23:52;;;;;;;5.93;5.00;;;;;;;;;;5123947;28;20272;-84
2021/11/21 07:26:19;;;;;;;6.20;4.50;;;;;;;;;;5129174;28;20227;-84
2021/11/21 07:28:46;;;;;;;5.65;3.90;;;;;;;;;;5132334;27;20288;-84
2021/11/21 07:31:15;;;;;;;7.03;4.80;;;;;;;;;;5133222;27;20723;-84
2021/11/21 07:33:42;;;;;;;9.02;5.70;;;;;;;;;;5133170;27;20207;-84
2021/11/21 07:36:10;;;;;;;5.75;3.80;;;;;;;;;;5133654;27;20531;-84
2021/11/21 07:38:39;;;;;;;6.50;4.05;;;;;;;;;;5133708;27;20234;-83
2021/11/21 07:41:06;;;;;;;6.53;3.80;;;3.20;99.90;;;;;;5130322;27;20243;-84
2021/11/21 07:43:34;;;;;;;6.82;5.15;;;;;;;;;;5131304;27;20231;-84
2021/11/21 07:46:01;;;;;;;7.13;4.65;;;;;;;;;;5132713;27;20283;-83
2021/11/21 07:48:29;;;;;;;7.43;4.82;;;3.00;99.90;;;;;;5130949;27;20658;-84
2021/11/21 07:50:57;;;;;;;14.05;5.20;;;;;;;;;;5132582;27;20275;-83
2021/11/21 07:53:24;;;;;;;10.38;5.07;;;;;;;;;;5132910;27;20234;-83
2021/11/21 07:55:52;;;;;;;9.73;5.03;;;2.90;99.90;;;;;;5132148;27;20664;-84
2021/11/21 07:58:19;;;;;;;8.20;5.05;;;;;;;;;;5131835;27;20225;-84
2021/11/21 08:00:46;;;;;;;6.53;4.50;;;;;;;;;;5132115;27;20201;-83
2021/11/21 08:03:13;;;;;;;9.55;5.15;;;;;;;;;;5131467;27;20263;-83
2021/11/21 08:05:42;;;;;;;8.70;5.20;;;3.30;99.90;;;;;;5132270;27;20242;-84
2021/11/21 08:08:09;;;;;;;18.17;4.90;;;;;;;;;;5132414;27;20197;-84
2021/11/21 08:10:37;;;;;;;7.28;4.45;;;;;;;;;;5130832;27;20742;-84
2021/11/21 08:13:05;;;;;;;11.15;5.43;;;;;;;;;;5130680;27;20730;-83
2021/11/21 08:15:32;;;;;;;9.63;5.45;;;;;;;;;;5127528;27;20256;-83
2021/11/21 08:17:59;;;;;;;10.77;5.10;;;;;;;;;;5132048;27;20246;-83
2021/11/21 08:20:26;;;;;;;7.68;4.90;;;;;;;;;;5131011;27;20257;-83
2021/11/21 08:22:56;;;;;;;11.15;4.93;;;3.50;99.90;;;;;;5131995;27;20196;-83
2021/11/21 08:25:23;;;;;;;6.75;5.43;;;;;;;;;;5132741;27;20253;-83
2021/11/21 08:27:50;;;;;;;18.38;5.80;;;;;;;;;;5132365;27;20241;-82
2021/11/21 08:30:18;;;;;;;10.23;3.95;;;;;;;;;;5131810;27;20227;-83
2021/11/21 08:32:46;;;;;;;13.80;6.53;;;;;;;;;;5131030;27;20275;-84
2021/11/21 08:35:13;;;;;;;8.27;4.78;;;;;;;;;;5132218;27;20200;-84
2021/11/21 08:37:40;;;;;;;11.90;6.15;;;;;;;;;;5131451;27;20656;-83
2021/11/21 08:40:10;;;;;;;10.80;7.55;;;3.50;99.90;;;;;;5130085;27;20227;-83
2021/11/21 08:42:37;;;;;;;12.18;7.20;;;3.60;99.90;;;;;;5129534;27;20279;-84
2021/11/21 08:45:05;;;;;;;11.40;6.90;;;;;;;;;;5130976;27;20192;-84
2021/11/21 08:47:32;;;;;;;12.63;7.63;;;;;;;;;;5130756;27;20798;-83
2021/11/21 08:49:59;;;;;;;11.57;7.43;;;;;;;;;;5130824;27;20191;-84
2021/11/21 08:52:26;;;;;;;12.35;7.70;;;;;;;;;;5129634;27;20278;-84
2021/11/21 08:54:53;;;;;;;14.32;8.20;;;;;;;;;;5130683;27;20216;-84
2021/11/21 08:57:22;;;;;;;18.35;11.18;;;;;;;;;;5129978;27;20803;-84
2021/11/21 08:59:49;;;;;;;17.95;10.40;;;;;;;;;;5130555;27;20235;-83
2021/11/21 09:02:16;;;;;;;17.33;9.85;;;;;;;;;;5130143;27;20228;-84
2021/11/21 09:04:43;;;;;;;15.73;9.75;;;;;;;;;;5131466;27;20293;-83
2021/11/21 09:07:10;;;;;;;14.02;8.65;;;;;;;;;;5129613;27;20932;-84
2021/11/21 09:09:38;;;;;;;14.32;8.77;;;;;;;;;;5130691;27;20194;-84
2021/11/21 09:12:05;;;;;;;15.80;9.63;;;5.50;99.90;;;;;;5115077;27;20303;-84
2021/11/21 09:14:34;;;;;;;20.05;13.15;;;;;;;;;;5123720;27;20303;-84
2021/11/21 09:17:02;;;;;;;17.10;9.63;;;;;;;;;;5129803;27;20287;-83
2021/11/21 09:19:29;;;;;;;16.25;9.10;;;;;;;;;;5130573;27;20653;-84
2021/11/21 09:21:56;;;;;;;14.02;10.10;;;;;;;;;;5130119;27;20679;-84
2021/11/21 09:24:24;;;;;;;25.70;11.88;;;;;;;;;;5130597;27;20278;-84
2021/11/21 09:26:51;;;;;;;16.15;9.30;;;;;;;;;;5129925;27;20583;-83
2021/11/21 09:29:18;;;;;;;15.32;9.45;;;;;;;;;;5130631;27;20313;-85
2021/11/21 09:31:46;;;;;;;20.13;11.23;;;;;;;;;;5129212;27;20294;-83
2021/11/21 09:34:15;;;;;;;17.85;9.73;;;;;;;;;;5125568;27;20228;-83
2021/11/21 09:36:43;;;;;;;18.00;9.80;;;;;;;;;;5128837;27;20216;-83
2021/11/21 09:39:11;;;;;;;15.32;10.52;;;;;;;;;;5129751;27;20243;-83
2021/11/21 09:41:41;;;;;;;12.98;8.00;;;;;;;;;;5128754;27;20245;-84
2021/11/21 09:44:10;;;;;;;10.13;7.70;;;;;;;;;;5130725;27;20192;-84
2021/11/21 09:46:48;;;;;;;20.42;13.95;;;;;;;;;;5129204;27;20196;-84
2021/11/21 09:49:28;;;;;;;18.60;9.90;;;;;;;;;;5130488;27;21120;-84
2021/11/21 09:52:00;;;;;;;18.13;9.00;;;;;;;;;;5117936;27;20187;-84
2021/11/21 09:54:28;;;;;;;14.20;9.32;;;4.00;99.90;;;;;;5130401;27;20200;-84
2021/11/21 09:56:56;;;;;;;11.25;8.77;;;4.00;99.90;;;;;;5117392;27;20356;-84
2021/11/21 09:59:53;;;;;;;14.18;8.57;;;4.10;99.90;;;;;;5130171;27;20740;-83
2021/11/21 10:02:22;;;;;;;15.75;9.07;;;3.90;99.90;;;;;;5120187;27;20232;-83
2021/11/21 10:04:52;;;;;;;12.40;8.15;;;3.90;99.90;;;;;;5129070;27;20204;-83
2021/11/21 10:07:27;;;;;;;13.07;9.23;;;3.90;99.90;;;;;;5130481;27;20205;-83
2021/11/21 10:09:56;;;;;;;14.45;8.25;;;3.90;99.90;;;;;;5129810;27;20194;-83
2021/11/21 10:12:24;;;;;;;13.95;8.93;;;4.00;99.90;;;;;;5130403;27;20277;-84
2021/11/21 10:14:59;;;;;;;12.10;7.85;;;7.00;99.90;;;;;;5129727;27;20228;-83
2021/11/21 10:17:27;;;;;;;13.95;7.88;;;3.90;99.90;;;;;;5119763;27;20225;-83
2021/11/21 10:20:13;;;;;;;9.93;7.30;;;3.80;99.90;;;;;;5131010;27;20226;-84
2021/11/21 10:22:58;;;;;;;9.68;7.07;;;3.80;99.90;;;;;;5131244;27;20192;-84
2021/11/21 10:25:45;;;;;;;11.38;6.82;;;4.00;99.90;;;;;;5129895;27;20200;-83
2021/11/21 10:28:15;;;;;;;13.40;7.82;;;3.90;99.90;;;;;;5131322;28;20219;-84
2021/11/21 10:31:10;;;;;;;14.30;7.63;;;4.00;99.90;;;;;;5129742;28;20203;-84
2021/11/21 10:33:42;;;;;;;11.05;6.95;;;3.90;99.90;;;;;;5130335;28;20204;-83
2021/11/21 10:36:13;;;;;;;12.15;8.00;;;4.00;99.90;;;;;;5129784;28;20221;-84
2021/11/21 10:38:43;;;;;;;11.77;7.70;;;3.90;99.90;;;;;;5131370;28;20200;-84
2021/11/21 10:41:14;;;;;;;12.93;6.75;;;3.90;99.90;;;;;;5129590;28;20201;-84
2021/11/21 10:43:44;;;;;;;12.70;7.82;;;3.70;99.90;;;;;;5110652;28;20275;-83
2021/11/21 10:46:22;;;;;;;14.05;8.20;;;3.70;99.90;;;;;;5121220;28;20217;-83
2021/11/21 10:48:49;;;;;;;7.90;5.78;;;;;;;;;;5129262;28;20252;-84
2021/11/21 10:51:21;;;;;;;13.30;7.00;;;3.90;99.90;;;;;;5128909;28;20227;-83
2021/11/21 10:53:48;;;;;;;11.27;7.00;;;;;;;;;;5131332;28;20236;-84
2021/11/21 10:56:15;;;;;;;10.60;7.32;;;;;;;;;;5129932;28;20268;-83
2021/11/21 10:58:46;;;;;;;8.32;5.63;;;3.90;99.90;;;;;;5130209;28;20609;-83
2021/11/21 11:01:20;;;;;;;7.75;6.50;;;3.80;99.90;;;;;;5129509;28;20207;-84
2021/11/21 11:04:12;;;;;;;9.07;6.65;;;3.90;99.90;;;;;;5133758;27;20279;-85
2021/11/21 11:06:42;;;;;;;13.77;8.35;;;4.00;99.90;;;;;;5133125;27;20855;-85
2021/11/21 11:09:21;;;;;;;10.55;7.78;;;4.10;99.90;;;;;;5133331;27;20188;-84
2021/11/21 11:11:50;;;;;;;14.80;5.80;;;4.00;99.90;;;;;;5133409;27;20238;-84
2021/11/21 11:14:21;;;;;;;8.50;6.35;;;3.90;99.90;;;;;;5134173;27;20599;-84
2021/11/21 11:16:50;;;;;;;9.90;6.15;;;4.00;99.90;;;;;;5138492;27;20250;-84
2021/11/21 11:19:18;;;;;;;11.65;7.00;;;4.20;99.90;;;;;;5155440;27;20543;-84
2021/11/21 11:21:50;;;;;;;9.13;5.90;;;4.00;99.90;;;;;;5135464;27;20188;-85
2021/11/21 11:24:20;;;;;;;13.10;6.97;;;5.30;99.90;;;;;;5134688;27;20209;-85
2021/11/21 11:26:47;;;;;;;9.80;6.35;;;;;;;;;;5133123;27;20201;-84
2021/11/21 11:29:20;;;;;;;11.52;6.63;;;3.90;99.90;;;;;;5127390;27;20645;-84
2021/11/21 11:31:49;;;;;;;9.73;7.20;;;;;;;;;;5132539;27;20227;-84
2021/11/21 11:34:34;;;;;;;11.65;7.43;;;4.00;99.90;;;;;;5133071;27;20223;-83
2021/11/21 11:37:03;;;;;;;10.25;6.72;;;4.00;99.90;;;;;;5132798;27;20225;-84
2021/11/21 11:39:39;;;;;;;11.43;6.78;;;4.10;99.90;;;;;;5134206;27;20209;-83
2021/11/21 11:42:37;;;;;;;13.88;7.57;;;4.10;99.90;;;;;;5129692;27;20599;-84
2021/11/21 11:45:07;;;;;;;9.60;6.03;;;4.10;99.90;;;;;;5117222;27;20224;-84
2021/11/21 11:47:34;;;;;;;8.38;6.10;;;3.80;99.90;;;;;;5133409;27;20658;-83
2021/11/21 11:50:01;;;;;;;8.05;5.85;;;3.80;99.90;;;;;;5145927;27;20286;-84
2021/11/21 11:52:54;;;;;;;8.45;6.70;;;;;;;;;;5154440;27;20211;-84
2021/11/21 11:55:22;;;;;;;10.20;6.97;;;;;;;;;;5113427;28;20201;-84
2021/11/21 11:57:49;;;;;;;9.48;6.43;;;;;;;;;;5131473;27;20290;-84
2021/11/21 12:00:47;;;;;;;9.75;6.00;;;4.20;99.90;;;;;;5133179;27;20193;-84
2021/11/21 12:03:39;;;;;;;9.70;6.30;;;4.10;99.90;;;;;;5110569;27;20610;-84
2021/11/21 12:06:07;;;;;;;9.30;6.07;;;4.30;99.90;;;;;;5133481;27;20223;-84
2021/11/21 12:08:36;;;;;;;9.70;6.68;;;4.40;99.90;;;;;;5133360;27;20240;-83
2021/11/21 12:11:03;;;;;;;7.90;6.20;;;;;;;;;;5130589;27;20253;-84
2021/11/21 12:13:31;;;;;;;9.50;6.53;;;4.30;99.90;;;;;;5132440;27;20723;-84
2021/11/21 12:16:01;;;;;;;10.75;5.75;;;4.60;99.90;;;;;;5131904;27;20194;-84
2021/11/21 12:18:52;;;;;;;9.80;7.55;;;4.40;99.90;;;;;;5132566;27;20225;-83
2021/11/21 12:21:44;;;;;;;11.95;8.43;;;4.30;99.90;;;;;;5132605;27;20237;-84
2021/11/21 12:24:24;;;;;;;7.60;5.55;;;4.40;99.90;;;;;;5132720;27;20197;-84
2021/11/21 12:26:51;;;;;;;13.45;8.05;;;;;;;;;;5132293;27;20734;-84
2021/11/21 12:29:32;;;;;;;13.35;6.20;;;4.60;99.90;;;;;;5132947;27;20666;-84
2021/11/21 12:32:20;;;;;;;8.63;6.35;;;4.80;99.90;;;;;;5112636;28;20194;-84
2021/11/21 12:34:49;;;;;;;9.30;6.10;;;4.60;99.90;;;;;;5130442;27;20190;-84
2021/11/21 12:37:23;;;;;;;12.63;6.55;;;4.40;99.90;;;;;;5133234;27;20221;-84
2021/11/21 12:39:53;;;;;;;9.60;7.20;;;4.30;99.90;;;;;;5132823;27;20214;-84
2021/11/21 12:42:26;;;;;;;11.82;6.20;;;4.20;99.90;;;;;;5132300;27;20275;-84
2021/11/21 12:45:08;;;;;;;7.25;5.55;;;3.60;99.90;;;;;;5131951;27;20250;-84
2021/11/21 12:47:36;;;;;;;9.55;6.10;;;4.10;99.90;;;;;;5132582;27;20226;-83
2021/11/21 12:50:03;;;;;;;7.53;5.53;;;;;;;;;;5125301;27;20302;-83
2021/11/21 12:52:30;;;;;;;8.50;5.10;;;4.20;99.90;;;;;;5132055;27;20230;-84
2021/11/21 12:54:58;;;;;;;7.85;5.25;;;;;;;;;;5131526;27;20277;-83
2021/11/21 12:57:26;;;;;;;7.82;5.45;;;;;;;;;;5131586;27;20700;-84
2021/11/21 12:59:55;;;;;;;9.93;5.70;;;4.10;99.90;;;;;;5131548;27;20189;-84
2021/11/21 13:02:25;;;;;;;10.60;6.15;;;4.00;99.90;;;;;;5125093;27;20230;-84
2021/11/21 13:04:54;;;;;;;11.20;5.45;;;4.00;99.90;;;;;;5131386;27;20707;-84
2021/11/21 13:07:30;;;;;;;10.48;7.05;;;4.10;99.90;;;;;;5132116;27;20699;-84
2021/11/21 13:10:07;;;;;;;7.32;5.15;;;4.20;99.90;;;;;;5129384;27;20249;-84
2021/11/21 13:12:35;;;;;;;7.47;5.18;;;4.20;99.90;;;;;;5130623;27;20208;-83
2021/11/21 13:15:06;;;;;;;7.95;5.35;;;4.30;99.90;;;;;;5129761;27;20659;-84
2021/11/21 13:17:34;;;;;;;6.10;5.45;;;;;;;;;;5130697;27;20247;-84
2021/11/21 13:20:13;;;;;;;9.55;5.85;;;4.30;99.90;;;;;;5129981;27;20201;-84
2021/11/21 13:23:02;;;;;;;8.30;5.70;;;4.30;99.90;;;;;;5130728;27;20204;-84
2021/11/21 13:25:52;;;;;;;6.45;4.70;;;4.30;99.90;;;;;;5129976;27;20274;-84
2021/11/21 13:28:40;;;;;;;9.75;5.25;;;4.40;99.90;;;;;;5131894;27;20232;-84
2021/11/21 13:31:22;;;;;;;9.82;7.57;;;4.40;99.90;;;;;;5130186;27;20611;-84
2021/11/21 13:33:58;;;;;;;10.00;4.93;;;4.50;99.90;;;;;;5131579;27;20232;-84
2021/11/21 13:36:35;;;;;;;8.40;4.57;;;4.50;99.90;;;;;;5131230;27;20252;-84
2021/11/21 13:39:06;;;;;;;6.97;5.25;;;4.40;99.90;;;;;;5131198;27;20260;-84
2021/11/21 13:41:36;;;;;;;13.07;9.57;;;;;;;;;;5130383;27;20257;-84
2021/11/21 13:44:07;;;;;;;13.85;9.75;;;4.60;99.90;;;;;;5131496;27;20249;-84
2021/11/21 13:46:36;;;;;;;10.93;9.70;;;4.50;99.90;;;;;;5130658;27;20241;-85
2021/11/21 13:49:14;;;;;;;13.25;8.45;;;4.70;99.90;;;;;;5131909;27;20217;-83
2021/11/21 13:51:41;;;;;;;9.18;5.85;;;5.20;99.90;;;;;;5129371;27;20697;-84
2021/11/21 13:54:09;;;;;;;7.93;5.00;;;;;;;;;;5131326;27;20204;-85
2021/11/21 13:56:43;;;;;;;5.55;5.03;;;4.60;99.90;;;;;;5130894;27;20194;-84
2021/11/21 13:59:13;;;;;;;6.85;5.75;;;4.50;99.90;;;;;;5131380;27;20234;-84
2021/11/21 14:01:46;;;;;;;11.02;5.60;;;4.40;99.90;;;;;;5123153;27;20689;-84
2021/11/21 14:04:13;;;;;;;7.75;5.57;;;;;;;;;;5130898;27;20266;-84